Time;durP1;ratioP1;P1;durP2;ratioP2;P2;SDS_P1;SDS_P2;PMS_P1;PMS_P2;Temp;Humidity;BMP_temperature;BMP_pressure;BME280_temperature;BME280_humidity;BME280_pressure;Samples;Min_cycle;Max_cycle;Signal;HPM_P1;HPM_P2
2022/08/25 00:01:29;;;;;;;9.35;3.97;;;29.20;31.90;;;;;;20992597;28;20045;-58
2022/08/25 00:11:37;;;;;;;13.07;4.53;;;29.10;32.20;;;;;;20992383;28;20048;-62
2022/08/25 00:21:41;;;;;;;6.25;3.80;;;29.00;32.30;;;;;;20996255;28;20045;-59
2022/08/25 00:31:44;;;;;;;8.32;4.82;;;28.70;32.00;;;;;;21006667;28;20110;-58
2022/08/25 00:41:47;;;;;;;10.40;5.15;;;28.70;32.10;;;;;;21005902;28;20424;-58
2022/08/25 00:52:22;;;;;;;11.23;7.55;;;28.70;31.80;;;;;;21004586;28;20049;-59
2022/08/25 01:02:24;;;;;;;7.07;4.32;;;28.80;31.30;;;;;;21005514;28;20052;-58
2022/08/25 01:12:26;;;;;;;8.07;3.75;;;28.60;30.70;;;;;;21003030;28;20052;-58
2022/08/25 01:22:28;;;;;;;9.02;4.93;;;28.60;30.50;;;;;;21003097;28;20044;-58
2022/08/25 01:32:33;;;;;;;10.82;4.28;;;28.50;32.50;;;;;;21000761;28;20399;-58
2022/08/25 01:42:59;;;;;;;5.88;3.78;;;28.50;31.70;;;;;;21000907;28;20053;-58
2022/08/25 01:53:10;;;;;;;4.68;3.50;;;28.60;31.70;;;;;;21000453;28;20449;-59
2022/08/25 02:03:12;;;;;;;8.63;4.20;;;28.60;33.40;;;;;;20999883;28;20052;-58
2022/08/25 02:13:15;;;;;;;10.82;7.80;;;28.50;33.50;;;;;;21000211;28;20044;-58
2022/08/25 02:23:17;;;;;;;9.10;3.70;;;28.40;34.00;;;;;;20997593;28;20056;-59
2022/08/25 02:33:20;;;;;;;10.40;4.97;;;28.20;34.40;;;;;;20996083;28;20087;-59
2022/08/25 02:43:22;;;;;;;9.23;3.88;;;28.10;34.80;;;;;;20995139;28;20049;-58
2022/08/25 02:53:24;;;;;;;8.15;5.30;;;28.00;35.40;;;;;;20995761;28;20454;-58
2022/08/25 03:03:26;;;;;;;11.70;4.47;;;27.90;36.10;;;;;;20995593;28;20040;-58
2022/08/25 03:13:28;;;;;;;10.40;4.32;;;27.70;36.40;;;;;;20995064;28;20048;-57
2022/08/25 03:23:30;;;;;;;7.20;3.60;;;27.60;36.40;;;;;;20993710;28;20059;-57
2022/08/25 03:33:33;;;;;;;6.18;3.80;;;27.60;36.40;;;;;;20994088;28;20144;-57
2022/08/25 03:43:35;;;;;;;8.20;5.05;;;27.60;36.50;;;;;;20992594;28;20052;-58
2022/08/25 03:53:36;;;;;;;11.63;5.03;;;27.40;37.00;;;;;;20990967;28;20105;-57
2022/08/25 04:03:38;;;;;;;7.45;4.32;;;27.20;37.40;;;;;;21008152;28;20127;-57
2022/08/25 04:13:41;;;;;;;6.97;3.72;;;27.00;37.80;;;;;;21009353;28;20048;-57
2022/08/25 04:23:44;;;;;;;7.63;3.60;;;26.60;38.10;;;;;;21007056;28;20055;-57
2022/08/25 04:33:47;;;;;;;5.97;3.25;;;26.30;38.60;;;;;;21006537;28;20417;-58
2022/08/25 04:43:49;;;;;;;6.60;2.80;;;26.40;40.20;;;;;;21005386;28;20059;-57
2022/08/25 04:53:51;;;;;;;8.68;2.97;;;26.60;40.60;;;;;;21005375;28;20501;-56
2022/08/25 05:04:01;;;;;;;9.77;3.38;;;26.40;40.90;;;;;;21003893;28;20055;-58
2022/08/25 05:14:04;;;;;;;9.75;3.28;;;26.40;40.80;;;;;;21002252;28;20175;-59
2022/08/25 05:24:06;;;;;;;9.25;3.03;;;26.20;40.50;;;;;;21002781;28;20119;-58
2022/08/25 05:34:10;;;;;;;10.73;3.33;;;26.20;40.40;;;;;;21001859;28;20051;-58
2022/08/25 05:44:12;;;;;;;8.85;3.47;;;26.10;39.90;;;;;;21000517;28;20496;-58
2022/08/25 05:54:14;;;;;;;7.90;3.83;;;26.10;38.10;;;;;;20999538;28;20055;-58
2022/08/25 06:04:18;;;;;;;13.75;4.45;;;26.00;37.00;;;;;;20999616;28;20128;-57
2022/08/25 06:14:21;;;;;;;11.10;3.38;;;26.00;36.20;;;;;;20998294;28;20080;-57
2022/08/25 06:24:25;;;;;;;11.73;3.83;;;26.00;38.00;;;;;;20996625;28;20098;-57
2022/08/25 06:34:27;;;;;;;12.35;3.22;;;26.00;39.70;;;;;;20996082;28;20059;-58
2022/08/25 06:44:28;;;;;;;;;;;26.00;41.60;;;;;;20996454;28;20053;-59
2022/08/25 06:54:30;;;;;;;7.63;2.50;;;26.00;42.30;;;;;;20994937;28;19920;-58
2022/08/25 07:04:32;;;;;;;;;;;26.10;45.50;;;;;;20995321;28;20372;-58
2022/08/25 07:14:35;;;;;;;6.93;2.67;;;26.30;46.50;;;;;;20994552;28;19924;-58
2022/08/25 07:24:36;;;;;;;8.00;2.72;;;26.60;46.90;;;;;;20993673;28;20044;-57
2022/08/25 07:44:58;;;;;;;9.10;2.72;;;27.20;45.90;;;;;;21009647;28;20075;-57
2022/08/25 07:55:01;;;;;;;10.45;2.72;;;27.40;45.30;;;;;;21008836;28;20044;-57
2022/08/25 08:05:03;;;;;;;8.05;3.10;;;27.70;44.80;;;;;;21009090;28;20052;-59
2022/08/25 08:15:06;;;;;;;10.68;3.63;;;28.10;43.90;;;;;;21007652;28;20091;-58
2022/08/25 08:25:09;;;;;;;13.80;4.35;;;28.20;43.40;;;;;;21006527;28;20082;-58
2022/08/25 08:35:11;;;;;;;10.45;3.33;;;28.40;42.50;;;;;;21007079;28;20055;-57
2022/08/25 08:45:36;;;;;;;10.88;3.85;;;28.60;42.60;;;;;;21005087;28;20052;-57
2022/08/25 08:55:56;;;;;;;5.97;3.67;;;28.90;41.50;;;;;;21004402;28;20064;-58
2022/08/25 09:06:04;;;;;;;10.17;3.30;;;29.10;39.50;;;;;;21003757;28;20600;-56
2022/08/25 09:26:50;;;;;;;13.38;3.95;;;28.90;40.10;;;;;;21001081;28;20048;-58
2022/08/25 09:36:52;;;;;;;7.07;4.32;;;29.20;39.60;;;;;;21001347;28;20125;-59
2022/08/25 09:47:01;;;;;;;7.07;3.20;;;29.40;38.70;;;;;;21000369;28;20485;-58
2022/08/25 09:57:04;;;;;;;10.55;3.70;;;29.50;38.60;;;;;;20999249;28;20097;-57
2022/08/25 10:07:26;;;;;;;9.93;4.13;;;29.60;38.00;;;;;;20999861;28;20040;-57
2022/08/25 10:17:33;;;;;;;7.50;3.63;;;29.70;37.20;;;;;;20997795;28;20048;-57
2022/08/25 10:28:04;;;;;;;9.68;3.70;;;29.60;36.80;;;;;;20996557;28;20052;-58
2022/08/25 10:38:18;;;;;;;13.10;4.38;;;29.90;37.00;;;;;;20995905;28;20048;-58
2022/08/25 10:48:22;;;;;;;11.35;3.70;;;29.90;36.30;;;;;;20995006;28;20049;-59
2022/08/25 10:58:51;;;;;;;10.43;4.90;;;30.20;35.50;;;;;;20994822;28;20554;-59
2022/08/25 11:09:03;;;;;;;8.38;3.63;;;30.60;34.70;;;;;;20994585;28;20135;-59
2022/08/25 11:19:34;;;;;;;10.55;3.80;;;30.90;34.30;;;;;;20993195;28;20090;-58
2022/08/25 11:29:37;;;;;;;8.30;3.67;;;31.10;33.50;;;;;;20993431;28;20050;-59
2022/08/25 11:40:06;;;;;;;14.77;4.90;;;31.10;32.10;;;;;;20994015;28;20123;-58
2022/08/25 11:50:31;;;;;;;7.68;4.30;;;31.60;31.60;;;;;;20991536;28;20053;-58
2022/08/25 12:00:42;;;;;;;11.43;5.40;;;31.60;31.80;;;;;;20992877;28;20055;-58
2022/08/25 12:10:52;;;;;;;7.05;4.40;;;31.90;31.00;;;;;;20991694;28;20106;-58
2022/08/25 12:20:55;;;;;;;12.00;4.10;;;32.20;30.30;;;;;;21001771;28;20053;-58
2022/08/25 12:31:06;;;;;;;7.32;4.25;;;32.10;30.40;;;;;;21006260;28;20484;-59
2022/08/25 12:41:15;;;;;;;11.55;4.03;;;32.30;30.30;;;;;;21005757;28;20053;-57
2022/08/25 12:51:18;;;;;;;7.40;4.17;;;32.50;29.60;;;;;;21005004;28;20086;-61
2022/08/25 13:01:27;;;;;;;9.43;3.97;;;32.50;28.90;;;;;;21004168;28;20485;-58
2022/08/25 13:11:38;;;;;;;5.10;4.35;;;32.80;28.50;;;;;;21004404;28;20052;-59
2022/08/25 13:21:42;;;;;;;6.97;3.90;;;33.20;28.20;;;;;;21004170;28;20071;-61
2022/08/25 13:32:04;;;;;;;12.15;3.88;;;33.10;28.00;;;;;;21000417;28;20056;-58
2022/08/25 13:42:12;;;;;;;8.13;3.35;;;33.30;27.40;;;;;;21001456;28;20044;-58
2022/08/25 13:52:26;;;;;;;6.65;3.63;;;33.10;27.10;;;;;;21000591;28;20484;-62
2022/08/25 14:02:49;;;;;;;6.13;4.57;;;33.20;26.60;;;;;;21000757;28;20053;-58
2022/08/25 14:13:12;;;;;;;9.95;4.15;;;33.40;25.90;;;;;;20998097;28;20152;-59
2022/08/25 14:23:18;;;;;;;7.35;3.38;;;33.80;25.70;;;;;;20997671;28;20158;-58
2022/08/25 14:33:25;;;;;;;5.88;2.80;;;33.50;28.30;;;;;;20998382;28;20553;-57
2022/08/25 14:43:28;;;;;;;10.18;2.67;;;33.10;28.20;;;;;;20995131;28;20056;-57
2022/08/25 14:53:31;;;;;;;11.60;3.45;;;33.10;27.40;;;;;;20995317;28;20056;-59
2022/08/25 15:03:37;;;;;;;8.52;3.65;;;33.10;28.30;;;;;;20994856;28;20052;-58
2022/08/25 15:13:40;;;;;;;8.80;2.70;;;33.10;28.10;;;;;;20995449;28;20044;-58
2022/08/25 15:23:42;;;;;;;8.20;3.42;;;33.10;27.20;;;;;;20993199;28;20094;-58
2022/08/25 15:33:44;;;;;;;5.22;3.50;;;33.10;27.70;;;;;;20994560;28;20044;-58
2022/08/25 15:43:46;;;;;;;6.25;3.30;;;33.20;26.80;;;;;;20993304;28;20055;-58
2022/08/25 15:53:47;;;;;;;8.98;3.30;;;33.40;26.80;;;;;;20999582;28;20064;-55
2022/08/25 16:03:50;;;;;;;7.45;3.40;;;33.30;26.50;;;;;;21008665;28;20087;-58
2022/08/25 16:13:52;;;;;;;4.40;2.70;;;33.40;25.70;;;;;;21007567;28;20082;-57
2022/08/25 16:24:01;;;;;;;8.82;2.95;;;33.50;25.70;;;;;;21006926;28;20054;-58
2022/08/25 16:34:04;;;;;;;6.05;3.10;;;33.50;25.60;;;;;;21005643;28;20083;-58
2022/08/25 16:44:08;;;;;;;5.80;3.53;;;33.40;25.70;;;;;;21005134;28;20048;-57
2022/08/25 17:04:31;;;;;;;8.38;2.60;;;33.30;24.20;;;;;;21003414;28;20040;-56
2022/08/25 17:14:33;;;;;;;10.10;3.15;;;33.40;24.30;;;;;;21003206;28;20140;-57
2022/08/25 17:24:35;;;;;;;8.23;3.58;;;33.30;24.40;;;;;;21002116;28;20098;-57
2022/08/25 17:34:37;;;;;;;4.88;2.67;;;33.10;24.20;;;;;;21001772;28;20067;-57
2022/08/25 17:44:39;;;;;;;6.45;3.00;;;33.10;23.90;;;;;;21000955;28;20084;-58
2022/08/25 17:54:41;;;;;;;6.78;2.80;;;32.90;24.50;;;;;;21000896;28;20055;-57
2022/08/25 18:04:42;;;;;;;8.27;3.10;;;32.90;24.80;;;;;;20999996;28;20049;-59
2022/08/25 18:14:44;;;;;;;10.18;3.80;;;32.70;24.90;;;;;;20998298;28;20056;-58
2022/08/25 18:24:46;;;;;;;7.18;2.88;;;32.60;24.70;;;;;;20998218;28;20052;-58
2022/08/25 18:34:48;;;;;;;15.82;4.20;;;32.60;24.90;;;;;;20996687;28;20048;-58
2022/08/25 18:44:49;;;;;;;12.05;2.65;;;32.10;30.50;;;;;;20996432;28;20500;-58
2022/08/25 18:54:51;;;;;;;11.10;2.30;;;31.30;32.40;;;;;;20994008;28;20408;-57
2022/08/25 19:04:53;;;;;;;7.95;2.40;;;30.80;32.70;;;;;;20995291;28;20052;-57
2022/08/25 19:14:55;;;;;;;5.55;2.38;;;30.50;33.10;;;;;;20994219;28;20056;-57
2022/08/25 19:24:56;;;;;;;5.10;2.70;;;30.30;33.50;;;;;;20992942;28;20071;-59
2022/08/25 19:34:57;;;;;;;4.80;1.98;;;30.20;33.40;;;;;;20992120;28;20080;-56
2022/08/25 19:44:59;;;;;;;3.70;2.42;;;30.00;33.60;;;;;;20993228;28;20061;-58
2022/08/25 19:55:01;;;;;;;5.40;2.65;;;29.80;33.90;;;;;;20992959;28;20072;-58
2022/08/25 20:05:04;;;;;;;5.25;2.40;;;29.70;34.30;;;;;;20992927;28;20041;-58
2022/08/25 20:15:06;;;;;;;4.75;2.00;;;29.60;34.50;;;;;;20992221;28;20045;-56
2022/08/25 20:25:11;;;;;;;5.95;2.30;;;29.60;34.60;;;;;;20991266;28;20412;-57
2022/08/25 20:35:14;;;;;;;5.65;2.08;;;29.30;34.90;;;;;;20991352;28;20048;-56
2022/08/25 20:45:20;;;;;;;7.10;2.55;;;29.20;35.20;;;;;;21006026;28;20106;-57
2022/08/25 20:55:22;;;;;;;5.00;2.50;;;29.10;35.70;;;;;;21005510;28;20059;-58
2022/08/25 21:05:23;;;;;;;5.22;2.10;;;29.00;35.90;;;;;;21004044;28;20076;-58
2022/08/25 21:15:25;;;;;;;5.28;2.10;;;28.80;36.40;;;;;;21003085;28;20060;-57
2022/08/25 21:25:27;;;;;;;4.32;2.08;;;28.60;36.80;;;;;;21002519;28;20044;-57
2022/08/25 21:35:29;;;;;;;4.63;1.85;;;28.40;36.90;;;;;;21001555;28;20055;-59
2022/08/25 21:45:39;;;;;;;4.50;1.77;;;28.30;37.10;;;;;;21001188;28;20048;-59
2022/08/25 21:55:43;;;;;;;;;;;28.20;37.10;;;;;;20998819;28;20484;-58
2022/08/25 22:05:44;;;;;;;3.08;1.50;;;28.00;37.30;;;;;;20999528;28;19921;-58
2022/08/25 22:15:45;;;;;;;;;;;27.70;37.30;;;;;;21000073;28;20466;-59
2022/08/25 22:25:47;;;;;;;2.73;1.33;;;27.50;37.70;;;;;;20997467;28;19967;-57
2022/08/25 22:35:48;;;;;;;4.40;1.50;;;27.60;37.70;;;;;;20996952;28;20127;-58
2022/08/25 22:45:59;;;;;;;4.90;1.67;;;27.40;38.20;;;;;;20996331;28;20415;-58
2022/08/25 22:56:01;;;;;;;4.07;2.35;;;27.30;38.50;;;;;;20996214;28;20562;-57
2022/08/25 23:06:03;;;;;;;2.53;1.52;;;27.10;39.40;;;;;;20994972;28;20067;-58
2022/08/25 23:16:06;;;;;;;5.03;1.70;;;26.90;40.00;;;;;;20994591;28;20127;-58
2022/08/25 23:26:09;;;;;;;2.72;1.70;;;26.70;40.50;;;;;;20994587;28;20049;-58
2022/08/25 23:36:13;;;;;;;3.47;1.90;;;26.60;41.00;;;;;;20994922;28;20109;-57
2022/08/25 23:46:17;;;;;;;4.47;1.65;;;26.30;41.80;;;;;;20993605;28;20060;-58
2022/08/25 23:56:18;;;;;;;3.63;1.80;;;26.20;42.50;;;;;;20994459;28;20080;-55
